Seoul, South Korea

11:19 AM KST on August 30, 2014 (GMT +0900)
IGYEONGG3 | Change Station
CLOSE
Current Station
Personal Weather Station
Location: Bucheon3, GYEONGGI
Elevation: 115 ft
Nearby Weather Stations

Elev 115 ft 37.53 °N, 126.83 °E | Updated 13 minutes ago

Clear
Clear
82.8 °F
Feels Like 86 °F
N
2.0
Wind Variable Wind from SW
Gusts 3.0 mph

Today
High -- | Low -- °F
--% Chance of Precip.
Yesterday
High -- | Low -- °F
Precip. -- in
6:00 AM 7:05 PM
Waxing Crescent, 18% visible
Pressure 30.01 in
Visibility -9999.0 miles
Clouds
Heat Index 86 °F
Dew Point 68 °F
Humidity 61%
Rainfall 0.00 in
Snow Depth Not available.
UV 5.4 out of 12
Pollen Not available.
Air Quality Not available.
Flu Activity Not available.
METAR RKSS 300200Z 05001KT CAVOK 27/15 Q1016 NOSIG

More Conditions Fewer Conditions

Pressure 30.01 in
Visibility -9999.0 miles
Clouds
Heat Index 86 °F
Dew Point 68 °F
Humidity 61%
Rainfall 0.00 in
Snow Depth Not available.
UV 5.4 out of 12
Pollen Not available.
Air Quality Not available.
Flu Activity Not available.
METAR RKSS 300200Z 05001KT CAVOK 27/15 Q1016 NOSIG

More Conditions Fewer Conditions

10-Day Weather Forecast

Almanac

Astronomy

Aug. 30, 2014 Rise Set
Actual Time 6:00 AM KST 7:05 PM KST
Civil Twilight 5:33 AM KST 7:31 PM KST
Nautical Twilight 5:01 AM KST 8:03 PM KST
Astronomical Twilight 4:28 AM KST 8:36 PM KST
Moon 10:07 AM KST 9:23 PM KST
Length of Visible Light 13h 58m
Length of Day
13h 04m
Tomorrow will be 2m 18s shorter.
Waxing Crescent, 18% of the Moon is Illuminated
Aug 29
Waxing Crescent
Sep 2
First Quarter
Sep 8
Full
Sep 15
Last Quarter
Sep 24
New

Yesterday's Extremes

Country Highs Country Lows

Community

WunderPhotos

Upload Photos

1,748,405 photos uploaded!

Nearby

Snow Depth

Not available.

Earthquake Activity

City Distance Mag. Time & Date
No recent earthquake activity has been reported nearby.
Minimum magnitude displayed is 2.5.

Coastal Water Temperatures

Place Temperature
No Stations Reporting

Nearby Weather Stations